Carnival Pride — H3VU — position and weather

sailwx.info

Track history (hours):
 
Tides and Currents Weather Stations Pressure Air Temp Water Temp Dewpoint Dewpoint Depression Visibility Wind Speed Wind Dir Waves Ship Positions

Carnival Pride

Operator: Carnival Cruise Lines

Last reported at 2016-May-29 14:28 UTC. Time now 2016-May-29 17:09 UTC.
Position N 39°16' W 076°36'.

Type: Ship. MMSI: 354215000.

Date/timePositionNaut miles runAvg speedWind from/ knotsBaromVisibWave heightAir tempDewpointWater temp
2016-May-29 14:28N 39°16' W 076°36'0 0.0
2016-May-29 13:28N 39°16' W 076°36'0 0.5
2016-May-29 12:33N 39°16' W 076°36'9 9.1
2016-May-29 11:33N 39°10' W 076°26'1413.6
2016-May-29 10:34N 38°57' W 076°23'2020.2
2016-May-29 09:34N 38°37' W 076°25'2020.4
2016-May-29 08:34N 38°18' W 076°17'2120.6
2016-May-29 07:33N 37°58' W 076°11'1919.3
2016-May-29 06:34N 37°39' W 076°07'1818.2
2016-May-29 05:34N 37°20' W 076°05'1717.3
2016-May-29 04:33N 37°03' W 076°05'1615.7
2016-May-29 03:33N 36°52' W 075°51'14918.0
2016-May-28 19:15N 34°23' W 075°59'  
2016-May-23 06:33N 36°49' W 075°48'1414.0
2016-May-23 05:33N 36°59' W 076°00'10918.1
2016-May-22 23:33N 38°46' W 076°25'1818.1
2016-May-22 22:33N 39°04' W 076°24'1212.3
2016-May-22 21:33N 39°14' W 076°33'3 1.4
2016-May-22 19:16N 39°16' W 076°36'0 0.0
2016-May-22 17:20N 39°16' W 076°36'0 0.0
2016-May-22 16:27N 39°16' W 076°36'0 0.0
2016-May-22 15:33N 39°16' W 076°36'0 0.0
2016-May-22 14:29N 39°16' W 076°36'0 0.0
2016-May-22 13:13N 39°16' W 076°36'0 0.0
2016-May-22 12:33N 39°16' W 076°36'8 7.8
2016-May-22 11:33N 39°11' W 076°28'1515.2
2016-May-22 10:34N 38°56' W 076°23'5919.5
2016-May-22 07:31N 37°58' W 076°11'5417.5
2016-May-22 04:27N 37°05' W 076°06'1314.2
2016-May-22 03:34N 36°55' W 075°55'15417.1
2016-May-21 18:33N 34°22' W 076°01'43021.2
2016-May-20 22:15N 27°51' W 079°31'1724.1
2016-May-20 21:33N 27°34' W 079°28'2423.6
2016-May-20 20:33N 27°11' W 079°21'2322.9
2016-May-20 19:33N 26°50' W 079°11'  
Track history (hours):
 
Tides and Currents Weather Stations Pressure Air Temp Water Temp Dewpoint Dewpoint Depression Visibility Wind Speed Wind Dir Waves Ship Positions

Carnival Pride

Operator: Carnival Cruise Lines

Last reported at 2016-May-29 14:28 UTC. Time now 2016-May-29 17:09 UTC.
Position N 39°16' W 076°36'.

Type: Ship. MMSI: 354215000.

Date/timePositionNaut miles runAvg speedWind from/ knotsBaromVisibWave heightAir tempDewpointWater temp
2016-May-29 14:28N 39°16' W 076°36'0 0.0
2016-May-29 13:28N 39°16' W 076°36'0 0.5
2016-May-29 12:33N 39°16' W 076°36'9 9.1
2016-May-29 11:33N 39°10' W 076°26'1413.6
2016-May-29 10:34N 38°57' W 076°23'2020.2
2016-May-29 09:34N 38°37' W 076°25'2020.4
2016-May-29 08:34N 38°18' W 076°17'2120.6
2016-May-29 07:33N 37°58' W 076°11'1919.3
2016-May-29 06:34N 37°39' W 076°07'1818.2
2016-May-29 05:34N 37°20' W 076°05'1717.3
2016-May-29 04:33N 37°03' W 076°05'1615.7
2016-May-29 03:33N 36°52' W 075°51'14918.0
2016-May-28 19:15N 34°23' W 075°59'  
2016-May-23 06:33N 36°49' W 075°48'1414.0
2016-May-23 05:33N 36°59' W 076°00'10918.1
2016-May-22 23:33N 38°46' W 076°25'1818.1
2016-May-22 22:33N 39°04' W 076°24'1212.3
2016-May-22 21:33N 39°14' W 076°33'3 1.4
2016-May-22 19:16N 39°16' W 076°36'0 0.0
2016-May-22 17:20N 39°16' W 076°36'0 0.0
2016-May-22 16:27N 39°16' W 076°36'0 0.0
2016-May-22 15:33N 39°16' W 076°36'0 0.0
2016-May-22 14:29N 39°16' W 076°36'0 0.0
2016-May-22 13:13N 39°16' W 076°36'0 0.0
2016-May-22 12:33N 39°16' W 076°36'8 7.8
2016-May-22 11:33N 39°11' W 076°28'1515.2
2016-May-22 10:34N 38°56' W 076°23'5919.5
2016-May-22 07:31N 37°58' W 076°11'5417.5
2016-May-22 04:27N 37°05' W 076°06'1314.2
2016-May-22 03:34N 36°55' W 075°55'15417.1
2016-May-21 18:33N 34°22' W 076°01'43021.2
2016-May-20 22:15N 27°51' W 079°31'1724.1
2016-May-20 21:33N 27°34' W 079°28'2423.6
2016-May-20 20:33N 27°11' W 079°21'2322.9
2016-May-20 19:33N 26°50' W 079°11'  

Dump ship's entire track history